sensor_id;sensor_type;location;lat;lon;timestamp;P1;durP1;ratioP1;P2;durP2;ratioP2
34102;SDS011;20381;54.498;18.206;2023-07-16T00:01:06;4.90;;;3.10;;
34102;SDS011;20381;54.498;18.206;2023-07-16T00:03:56;7.60;;;3.80;;
34102;SDS011;20381;54.498;18.206;2023-07-16T00:06:26;5.50;;;3.50;;
34102;SDS011;20381;54.498;18.206;2023-07-16T00:08:55;6.30;;;3.90;;
34102;SDS011;20381;54.498;18.206;2023-07-16T00:11:24;9.90;;;3.50;;
34102;SDS011;20381;54.498;18.206;2023-07-16T00:13:54;4.70;;;3.20;;
34102;SDS011;20381;54.498;18.206;2023-07-16T00:16:23;7.80;;;3.40;;
34102;SDS011;20381;54.498;18.206;2023-07-16T00:18:52;6.60;;;3.90;;
34102;SDS011;20381;54.498;18.206;2023-07-16T00:21:21;4.30;;;3.10;;
34102;SDS011;20381;54.498;18.206;2023-07-16T00:23:52;6.30;;;3.30;;
34102;SDS011;20381;54.498;18.206;2023-07-16T00:26:21;6.10;;;3.30;;
34102;SDS011;20381;54.498;18.206;2023-07-16T00:28:50;3.80;;;3.10;;
34102;SDS011;20381;54.498;18.206;2023-07-16T00:31:19;4.40;;;3.40;;
34102;SDS011;20381;54.498;18.206;2023-07-16T00:33:48;4.10;;;3.20;;
34102;SDS011;20381;54.498;18.206;2023-07-16T00:36:19;5.20;;;3.50;;
34102;SDS011;20381;54.498;18.206;2023-07-16T00:38:51;5.70;;;3.60;;
34102;SDS011;20381;54.498;18.206;2023-07-16T00:41:20;6.50;;;3.70;;
34102;SDS011;20381;54.498;18.206;2023-07-16T00:43:58;5.90;;;3.40;;
34102;SDS011;20381;54.498;18.206;2023-07-16T00:46:30;4.60;;;3.80;;
34102;SDS011;20381;54.498;18.206;2023-07-16T00:49:21;4.40;;;3.20;;
34102;SDS011;20381;54.498;18.206;2023-07-16T00:51:53;4.20;;;3.40;;
34102;SDS011;20381;54.498;18.206;2023-07-16T00:54:23;7.20;;;3.60;;
34102;SDS011;20381;54.498;18.206;2023-07-16T00:57:22;4.40;;;3.20;;
34102;SDS011;20381;54.498;18.206;2023-07-16T00:59:51;6.10;;;3.20;;
34102;SDS011;20381;54.498;18.206;2023-07-16T01:02:20;7.70;;;3.20;;
34102;SDS011;20381;54.498;18.206;2023-07-16T01:04:49;7.90;;;3.50;;
34102;SDS011;20381;54.498;18.206;2023-07-16T01:07:18;4.70;;;3.00;;
34102;SDS011;20381;54.498;18.206;2023-07-16T01:10:19;7.10;;;3.60;;
34102;SDS011;20381;54.498;18.206;2023-07-16T01:12:50;6.20;;;3.50;;
34102;SDS011;20381;54.498;18.206;2023-07-16T01:15:23;6.00;;;3.40;;
34102;SDS011;20381;54.498;18.206;2023-07-16T01:17:58;4.00;;;3.20;;
34102;SDS011;20381;54.498;18.206;2023-07-16T01:20:28;6.70;;;4.30;;
34102;SDS011;20381;54.498;18.206;2023-07-16T01:25:48;7.90;;;3.90;;
34102;SDS011;20381;54.498;18.206;2023-07-16T01:31:32;6.30;;;3.60;;
34102;SDS011;20381;54.498;18.206;2023-07-16T01:34:03;5.00;;;3.20;;
34102;SDS011;20381;54.498;18.206;2023-07-16T01:36:34;5.40;;;3.30;;
34102;SDS011;20381;54.498;18.206;2023-07-16T01:39:04;8.90;;;4.30;;
34102;SDS011;20381;54.498;18.206;2023-07-16T01:41:34;6.20;;;3.70;;
34102;SDS011;20381;54.498;18.206;2023-07-16T01:44:20;6.70;;;3.20;;
34102;SDS011;20381;54.498;18.206;2023-07-16T01:46:59;7.80;;;3.50;;
34102;SDS011;20381;54.498;18.206;2023-07-16T01:49:37;6.10;;;3.60;;
34102;SDS011;20381;54.498;18.206;2023-07-16T01:52:07;4.90;;;3.50;;
34102;SDS011;20381;54.498;18.206;2023-07-16T01:54:41;5.90;;;3.50;;
34102;SDS011;20381;54.498;18.206;2023-07-16T01:57:10;5.50;;;3.60;;
34102;SDS011;20381;54.498;18.206;2023-07-16T01:59:39;5.00;;;3.80;;
34102;SDS011;20381;54.498;18.206;2023-07-16T02:05:03;4.20;;;3.80;;
34102;SDS011;20381;54.498;18.206;2023-07-16T02:07:32;6.90;;;3.50;;
34102;SDS011;20381;54.498;18.206;2023-07-16T02:10:02;7.50;;;4.30;;
34102;SDS011;20381;54.498;18.206;2023-07-16T02:12:31;8.70;;;3.70;;
34102;SDS011;20381;54.498;18.206;2023-07-16T02:15:00;5.40;;;3.20;;
34102;SDS011;20381;54.498;18.206;2023-07-16T02:17:29;8.50;;;4.10;;
34102;SDS011;20381;54.498;18.206;2023-07-16T02:19:59;4.10;;;3.20;;
34102;SDS011;20381;54.498;18.206;2023-07-16T02:22:28;10.10;;;3.70;;
34102;SDS011;20381;54.498;18.206;2023-07-16T02:24:57;6.90;;;4.00;;
34102;SDS011;20381;54.498;18.206;2023-07-16T02:27:30;5.10;;;3.20;;
34102;SDS011;20381;54.498;18.206;2023-07-16T02:30:24;8.40;;;3.80;;
34102;SDS011;20381;54.498;18.206;2023-07-16T02:32:53;7.60;;;3.60;;
34102;SDS011;20381;54.498;18.206;2023-07-16T02:35:26;5.40;;;3.40;;
34102;SDS011;20381;54.498;18.206;2023-07-16T02:37:54;5.20;;;3.50;;
34102;SDS011;20381;54.498;18.206;2023-07-16T02:40:24;4.10;;;3.40;;
34102;SDS011;20381;54.498;18.206;2023-07-16T02:42:52;8.00;;;3.60;;
34102;SDS011;20381;54.498;18.206;2023-07-16T02:46:01;3.90;;;3.50;;
34102;SDS011;20381;54.498;18.206;2023-07-16T02:48:29;5.20;;;3.40;;
34102;SDS011;20381;54.498;18.206;2023-07-16T02:51:02;7.30;;;3.60;;
34102;SDS011;20381;54.498;18.206;2023-07-16T02:53:31;4.50;;;3.80;;
34102;SDS011;20381;54.498;18.206;2023-07-16T02:56:02;5.30;;;3.40;;
34102;SDS011;20381;54.498;18.206;2023-07-16T02:58:31;4.70;;;3.60;;
34102;SDS011;20381;54.498;18.206;2023-07-16T03:01:00;6.20;;;3.90;;
34102;SDS011;20381;54.498;18.206;2023-07-16T03:03:29;8.50;;;3.50;;
34102;SDS011;20381;54.498;18.206;2023-07-16T03:06:02;7.50;;;3.70;;
34102;SDS011;20381;54.498;18.206;2023-07-16T03:08:34;3.80;;;3.40;;
34102;SDS011;20381;54.498;18.206;2023-07-16T03:11:03;8.20;;;3.50;;
34102;SDS011;20381;54.498;18.206;2023-07-16T03:13:32;5.90;;;3.60;;
34102;SDS011;20381;54.498;18.206;2023-07-16T03:16:01;7.40;;;3.00;;
34102;SDS011;20381;54.498;18.206;2023-07-16T03:18:30;4.30;;;3.30;;
34102;SDS011;20381;54.498;18.206;2023-07-16T03:20:59;4.30;;;3.20;;
34102;SDS011;20381;54.498;18.206;2023-07-16T03:23:29;4.60;;;3.80;;
34102;SDS011;20381;54.498;18.206;2023-07-16T03:25:59;5.70;;;3.60;;
34102;SDS011;20381;54.498;18.206;2023-07-16T03:28:28;8.60;;;3.80;;
34102;SDS011;20381;54.498;18.206;2023-07-16T03:30:59;4.70;;;3.80;;
34102;SDS011;20381;54.498;18.206;2023-07-16T03:33:28;5.50;;;4.00;;
34102;SDS011;20381;54.498;18.206;2023-07-16T03:35:58;8.40;;;4.30;;
34102;SDS011;20381;54.498;18.206;2023-07-16T03:38:27;8.70;;;4.70;;
34102;SDS011;20381;54.498;18.206;2023-07-16T03:40:56;13.90;;;4.40;;
34102;SDS011;20381;54.498;18.206;2023-07-16T03:46:19;4.90;;;4.00;;
34102;SDS011;20381;54.498;18.206;2023-07-16T03:48:48;6.20;;;3.30;;
34102;SDS011;20381;54.498;18.206;2023-07-16T03:51:17;9.80;;;4.30;;
34102;SDS011;20381;54.498;18.206;2023-07-16T03:53:46;6.50;;;4.00;;
34102;SDS011;20381;54.498;18.206;2023-07-16T03:56:14;7.50;;;3.80;;
34102;SDS011;20381;54.498;18.206;2023-07-16T03:58:44;4.70;;;3.60;;
34102;SDS011;20381;54.498;18.206;2023-07-16T04:01:13;6.00;;;3.80;;
34102;SDS011;20381;54.498;18.206;2023-07-16T04:03:41;4.80;;;3.90;;
34102;SDS011;20381;54.498;18.206;2023-07-16T04:06:10;5.70;;;3.90;;
34102;SDS011;20381;54.498;18.206;2023-07-16T04:08:43;4.80;;;3.50;;
34102;SDS011;20381;54.498;18.206;2023-07-16T04:11:12;7.00;;;4.00;;
34102;SDS011;20381;54.498;18.206;2023-07-16T04:13:43;5.40;;;4.10;;
34102;SDS011;20381;54.498;18.206;2023-07-16T04:16:12;5.10;;;3.70;;
34102;SDS011;20381;54.498;18.206;2023-07-16T04:18:41;4.80;;;4.00;;
34102;SDS011;20381;54.498;18.206;2023-07-16T04:24:46;6.30;;;3.80;;
34102;SDS011;20381;54.498;18.206;2023-07-16T04:27:15;6.10;;;3.90;;
34102;SDS011;20381;54.498;18.206;2023-07-16T04:29:56;4.80;;;3.30;;
34102;SDS011;20381;54.498;18.206;2023-07-16T04:32:46;5.20;;;3.80;;
34102;SDS011;20381;54.498;18.206;2023-07-16T04:35:24;7.00;;;4.10;;
34102;SDS011;20381;54.498;18.206;2023-07-16T04:37:53;6.10;;;3.80;;
34102;SDS011;20381;54.498;18.206;2023-07-16T04:40:23;8.70;;;4.00;;
34102;SDS011;20381;54.498;18.206;2023-07-16T04:42:56;5.40;;;3.90;;
34102;SDS011;20381;54.498;18.206;2023-07-16T04:45:43;4.70;;;3.60;;
34102;SDS011;20381;54.498;18.206;2023-07-16T04:48:16;7.00;;;3.40;;
34102;SDS011;20381;54.498;18.206;2023-07-16T04:50:45;4.00;;;3.00;;
34102;SDS011;20381;54.498;18.206;2023-07-16T04:53:18;9.20;;;3.40;;
34102;SDS011;20381;54.498;18.206;2023-07-16T04:55:47;8.50;;;3.30;;
34102;SDS011;20381;54.498;18.206;2023-07-16T04:58:16;5.50;;;3.50;;
34102;SDS011;20381;54.498;18.206;2023-07-16T05:00:46;8.40;;;3.90;;
34102;SDS011;20381;54.498;18.206;2023-07-16T05:03:15;6.20;;;3.80;;
34102;SDS011;20381;54.498;18.206;2023-07-16T05:05:45;8.80;;;3.80;;
34102;SDS011;20381;54.498;18.206;2023-07-16T05:08:13;4.50;;;3.20;;
34102;SDS011;20381;54.498;18.206;2023-07-16T05:10:42;8.00;;;3.30;;
34102;SDS011;20381;54.498;18.206;2023-07-16T05:13:16;6.20;;;3.50;;
34102;SDS011;20381;54.498;18.206;2023-07-16T05:19:36;5.40;;;3.30;;
34102;SDS011;20381;54.498;18.206;2023-07-16T05:22:07;4.90;;;3.00;;
34102;SDS011;20381;54.498;18.206;2023-07-16T05:24:36;4.50;;;3.00;;
34102;SDS011;20381;54.498;18.206;2023-07-16T05:27:05;9.50;;;4.10;;
34102;SDS011;20381;54.498;18.206;2023-07-16T05:29:34;8.20;;;3.90;;
34102;SDS011;20381;54.498;18.206;2023-07-16T05:32:03;8.70;;;4.80;;
34102;SDS011;20381;54.498;18.206;2023-07-16T05:34:32;12.00;;;4.30;;
34102;SDS011;20381;54.498;18.206;2023-07-16T05:37:02;5.80;;;4.40;;
34102;SDS011;20381;54.498;18.206;2023-07-16T05:39:30;10.80;;;4.50;;
34102;SDS011;20381;54.498;18.206;2023-07-16T05:41:59;14.90;;;4.30;;
34102;SDS011;20381;54.498;18.206;2023-07-16T05:44:30;6.20;;;4.20;;
34102;SDS011;20381;54.498;18.206;2023-07-16T05:47:00;6.60;;;4.60;;
34102;SDS011;20381;54.498;18.206;2023-07-16T05:49:28;8.00;;;4.50;;
34102;SDS011;20381;54.498;18.206;2023-07-16T05:51:57;5.60;;;4.50;;
34102;SDS011;20381;54.498;18.206;2023-07-16T05:54:26;7.50;;;4.70;;
34102;SDS011;20381;54.498;18.206;2023-07-16T05:56:55;4.70;;;4.20;;
34102;SDS011;20381;54.498;18.206;2023-07-16T05:59:25;5.40;;;4.40;;
34102;SDS011;20381;54.498;18.206;2023-07-16T06:01:53;5.70;;;4.60;;
34102;SDS011;20381;54.498;18.206;2023-07-16T06:04:24;15.10;;;5.00;;
34102;SDS011;20381;54.498;18.206;2023-07-16T06:06:53;7.50;;;3.90;;
34102;SDS011;20381;54.498;18.206;2023-07-16T06:09:22;9.40;;;4.90;;
34102;SDS011;20381;54.498;18.206;2023-07-16T06:11:51;9.30;;;4.50;;
34102;SDS011;20381;54.498;18.206;2023-07-16T06:14:22;8.20;;;4.60;;
34102;SDS011;20381;54.498;18.206;2023-07-16T06:16:51;7.00;;;4.60;;
34102;SDS011;20381;54.498;18.206;2023-07-16T06:19:21;5.60;;;4.40;;
34102;SDS011;20381;54.498;18.206;2023-07-16T06:21:49;6.00;;;4.70;;
34102;SDS011;20381;54.498;18.206;2023-07-16T06:24:21;6.40;;;4.40;;
34102;SDS011;20381;54.498;18.206;2023-07-16T06:26:50;5.40;;;4.70;;
34102;SDS011;20381;54.498;18.206;2023-07-16T06:29:18;6.80;;;4.10;;
34102;SDS011;20381;54.498;18.206;2023-07-16T06:31:54;6.70;;;4.40;;
34102;SDS011;20381;54.498;18.206;2023-07-16T06:34:25;6.70;;;4.20;;
34102;SDS011;20381;54.498;18.206;2023-07-16T06:36:54;4.10;;;3.70;;
34102;SDS011;20381;54.498;18.206;2023-07-16T06:39:22;5.50;;;4.00;;
34102;SDS011;20381;54.498;18.206;2023-07-16T06:41:51;7.70;;;4.00;;
34102;SDS011;20381;54.498;18.206;2023-07-16T06:44:21;5.20;;;4.00;;
34102;SDS011;20381;54.498;18.206;2023-07-16T06:46:51;4.80;;;3.50;;
34102;SDS011;20381;54.498;18.206;2023-07-16T06:49:21;4.40;;;3.70;;
34102;SDS011;20381;54.498;18.206;2023-07-16T06:51:50;5.60;;;3.90;;
34102;SDS011;20381;54.498;18.206;2023-07-16T06:54:19;5.20;;;3.90;;
34102;SDS011;20381;54.498;18.206;2023-07-16T06:56:47;4.30;;;3.60;;
34102;SDS011;20381;54.498;18.206;2023-07-16T06:59:17;4.00;;;3.60;;
34102;SDS011;20381;54.498;18.206;2023-07-16T07:01:46;6.50;;;3.80;;
34102;SDS011;20381;54.498;18.206;2023-07-16T07:04:15;5.70;;;3.50;;
34102;SDS011;20381;54.498;18.206;2023-07-16T07:06:46;5.70;;;3.80;;
34102;SDS011;20381;54.498;18.206;2023-07-16T07:09:15;5.20;;;3.90;;
34102;SDS011;20381;54.498;18.206;2023-07-16T07:11:43;5.10;;;3.40;;
34102;SDS011;20381;54.498;18.206;2023-07-16T07:14:12;5.40;;;3.70;;
34102;SDS011;20381;54.498;18.206;2023-07-16T07:16:41;4.20;;;3.40;;
34102;SDS011;20381;54.498;18.206;2023-07-16T07:19:10;4.30;;;3.00;;
34102;SDS011;20381;54.498;18.206;2023-07-16T07:21:39;3.30;;;2.90;;
34102;SDS011;20381;54.498;18.206;2023-07-16T07:24:08;3.50;;;2.70;;
34102;SDS011;20381;54.498;18.206;2023-07-16T07:26:37;6.10;;;2.60;;
34102;SDS011;20381;54.498;18.206;2023-07-16T07:29:05;4.20;;;2.90;;
34102;SDS011;20381;54.498;18.206;2023-07-16T07:31:34;5.30;;;3.10;;
34102;SDS011;20381;54.498;18.206;2023-07-16T07:34:03;5.10;;;2.50;;
34102;SDS011;20381;54.498;18.206;2023-07-16T07:36:32;5.80;;;3.10;;
34102;SDS011;20381;54.498;18.206;2023-07-16T07:39:01;3.00;;;2.40;;
34102;SDS011;20381;54.498;18.206;2023-07-16T07:41:30;6.50;;;2.50;;
34102;SDS011;20381;54.498;18.206;2023-07-16T07:43:58;4.50;;;2.50;;
34102;SDS011;20381;54.498;18.206;2023-07-16T07:46:27;5.80;;;1.60;;
34102;SDS011;20381;54.498;18.206;2023-07-16T07:48:56;4.30;;;1.90;;
34102;SDS011;20381;54.498;18.206;2023-07-16T07:51:25;5.80;;;1.90;;
34102;SDS011;20381;54.498;18.206;2023-07-16T07:53:53;4.40;;;2.20;;
34102;SDS011;20381;54.498;18.206;2023-07-16T07:56:22;3.70;;;2.20;;
34102;SDS011;20381;54.498;18.206;2023-07-16T07:58:52;3.20;;;2.00;;
34102;SDS011;20381;54.498;18.206;2023-07-16T08:01:21;2.00;;;1.70;;
34102;SDS011;20381;54.498;18.206;2023-07-16T08:03:50;2.30;;;1.80;;
34102;SDS011;20381;54.498;18.206;2023-07-16T08:06:19;4.30;;;2.20;;
34102;SDS011;20381;54.498;18.206;2023-07-16T08:08:48;10.80;;;1.90;;
34102;SDS011;20381;54.498;18.206;2023-07-16T08:11:17;2.50;;;1.90;;
34102;SDS011;20381;54.498;18.206;2023-07-16T08:13:46;4.60;;;1.80;;
34102;SDS011;20381;54.498;18.206;2023-07-16T08:16:15;2.70;;;1.70;;
34102;SDS011;20381;54.498;18.206;2023-07-16T08:18:44;3.30;;;1.90;;
34102;SDS011;20381;54.498;18.206;2023-07-16T08:21:13;5.30;;;1.70;;
34102;SDS011;20381;54.498;18.206;2023-07-16T08:23:48;3.30;;;1.70;;
34102;SDS011;20381;54.498;18.206;2023-07-16T08:26:18;3.60;;;1.80;;
34102;SDS011;20381;54.498;18.206;2023-07-16T08:28:47;2.20;;;1.80;;
34102;SDS011;20381;54.498;18.206;2023-07-16T08:31:16;3.60;;;1.90;;
34102;SDS011;20381;54.498;18.206;2023-07-16T08:33:45;4.30;;;2.00;;
34102;SDS011;20381;54.498;18.206;2023-07-16T08:36:14;2.70;;;1.70;;
34102;SDS011;20381;54.498;18.206;2023-07-16T08:38:43;2.30;;;1.60;;
34102;SDS011;20381;54.498;18.206;2023-07-16T08:41:12;3.40;;;1.70;;
34102;SDS011;20381;54.498;18.206;2023-07-16T08:43:41;4.00;;;1.80;;
34102;SDS011;20381;54.498;18.206;2023-07-16T08:46:11;5.10;;;1.70;;
34102;SDS011;20381;54.498;18.206;2023-07-16T08:48:40;1.80;;;1.40;;
34102;SDS011;20381;54.498;18.206;2023-07-16T08:51:09;4.30;;;1.70;;
34102;SDS011;20381;54.498;18.206;2023-07-16T08:53:39;2.20;;;1.70;;
34102;SDS011;20381;54.498;18.206;2023-07-16T08:56:08;2.70;;;1.50;;
34102;SDS011;20381;54.498;18.206;2023-07-16T08:58:38;3.60;;;2.00;;
34102;SDS011;20381;54.498;18.206;2023-07-16T09:01:09;3.60;;;1.70;;
34102;SDS011;20381;54.498;18.206;2023-07-16T09:07:18;2.80;;;2.10;;
34102;SDS011;20381;54.498;18.206;2023-07-16T09:09:56;2.80;;;1.70;;
34102;SDS011;20381;54.498;18.206;2023-07-16T09:12:28;3.50;;;2.00;;
34102;SDS011;20381;54.498;18.206;2023-07-16T09:14:57;2.80;;;2.20;;
34102;SDS011;20381;54.498;18.206;2023-07-16T09:17:26;3.50;;;2.20;;
34102;SDS011;20381;54.498;18.206;2023-07-16T09:19:55;3.60;;;1.90;;
34102;SDS011;20381;54.498;18.206;2023-07-16T09:22:25;5.30;;;2.10;;
34102;SDS011;20381;54.498;18.206;2023-07-16T09:24:54;5.40;;;2.50;;
34102;SDS011;20381;54.498;18.206;2023-07-16T09:27:30;5.30;;;2.20;;
34102;SDS011;20381;54.498;18.206;2023-07-16T09:30:00;5.90;;;2.40;;
34102;SDS011;20381;54.498;18.206;2023-07-16T09:32:35;6.70;;;2.50;;
34102;SDS011;20381;54.498;18.206;2023-07-16T09:35:07;3.90;;;2.20;;
34102;SDS011;20381;54.498;18.206;2023-07-16T09:37:45;4.00;;;2.30;;
34102;SDS011;20381;54.498;18.206;2023-07-16T09:40:21;11.60;;;2.90;;
34102;SDS011;20381;54.498;18.206;2023-07-16T09:45:44;3.10;;;2.50;;
34102;SDS011;20381;54.498;18.206;2023-07-16T09:48:26;5.20;;;2.20;;
34102;SDS011;20381;54.498;18.206;2023-07-16T09:50:56;3.90;;;1.90;;
34102;SDS011;20381;54.498;18.206;2023-07-16T09:53:25;4.80;;;2.30;;
34102;SDS011;20381;54.498;18.206;2023-07-16T09:55:56;5.10;;;2.10;;
34102;SDS011;20381;54.498;18.206;2023-07-16T09:58:27;2.60;;;1.80;;
34102;SDS011;20381;54.498;18.206;2023-07-16T10:00:56;3.50;;;2.10;;
34102;SDS011;20381;54.498;18.206;2023-07-16T10:03:26;2.50;;;2.30;;
34102;SDS011;20381;54.498;18.206;2023-07-16T10:06:05;2.20;;;2.00;;
34102;SDS011;20381;54.498;18.206;2023-07-16T10:08:34;2.70;;;1.70;;
34102;SDS011;20381;54.498;18.206;2023-07-16T10:11:03;4.10;;;2.10;;
34102;SDS011;20381;54.498;18.206;2023-07-16T10:13:33;2.40;;;1.80;;
34102;SDS011;20381;54.498;18.206;2023-07-16T10:16:02;3.70;;;1.90;;
34102;SDS011;20381;54.498;18.206;2023-07-16T10:18:31;1.80;;;1.70;;
34102;SDS011;20381;54.498;18.206;2023-07-16T10:21:03;2.40;;;1.60;;
34102;SDS011;20381;54.498;18.206;2023-07-16T10:23:40;3.20;;;2.10;;
34102;SDS011;20381;54.498;18.206;2023-07-16T10:26:11;2.00;;;1.50;;
34102;SDS011;20381;54.498;18.206;2023-07-16T10:28:47;4.40;;;2.00;;
34102;SDS011;20381;54.498;18.206;2023-07-16T10:31:20;2.10;;;1.60;;
34102;SDS011;20381;54.498;18.206;2023-07-16T10:34:04;3.30;;;1.70;;
34102;SDS011;20381;54.498;18.206;2023-07-16T10:36:40;3.20;;;2.00;;
34102;SDS011;20381;54.498;18.206;2023-07-16T10:39:11;4.00;;;1.90;;
34102;SDS011;20381;54.498;18.206;2023-07-16T10:41:43;5.50;;;2.00;;
34102;SDS011;20381;54.498;18.206;2023-07-16T10:44:14;2.70;;;1.70;;
34102;SDS011;20381;54.498;18.206;2023-07-16T10:46:47;3.10;;;1.80;;
34102;SDS011;20381;54.498;18.206;2023-07-16T10:49:26;4.50;;;1.60;;
34102;SDS011;20381;54.498;18.206;2023-07-16T10:51:57;2.60;;;1.60;;
34102;SDS011;20381;54.498;18.206;2023-07-16T10:54:30;9.50;;;2.50;;
34102;SDS011;20381;54.498;18.206;2023-07-16T10:57:03;5.60;;;1.60;;
34102;SDS011;20381;54.498;18.206;2023-07-16T10:59:36;3.40;;;1.60;;
34102;SDS011;20381;54.498;18.206;2023-07-16T11:02:15;4.10;;;1.70;;
34102;SDS011;20381;54.498;18.206;2023-07-16T11:04:46;4.70;;;1.70;;
34102;SDS011;20381;54.498;18.206;2023-07-16T11:07:16;3.90;;;1.50;;
34102;SDS011;20381;54.498;18.206;2023-07-16T11:09:51;4.80;;;1.60;;
34102;SDS011;20381;54.498;18.206;2023-07-16T11:12:22;2.30;;;1.50;;
34102;SDS011;20381;54.498;18.206;2023-07-16T11:14:53;2.60;;;1.50;;
34102;SDS011;20381;54.498;18.206;2023-07-16T11:17:23;1.70;;;1.20;;
34102;SDS011;20381;54.498;18.206;2023-07-16T11:19:55;2.80;;;1.60;;
34102;SDS011;20381;54.498;18.206;2023-07-16T11:22:25;1.60;;;1.30;;
34102;SDS011;20381;54.498;18.206;2023-07-16T11:24:57;3.90;;;1.30;;
34102;SDS011;20381;54.498;18.206;2023-07-16T11:27:27;3.90;;;1.60;;
34102;SDS011;20381;54.498;18.206;2023-07-16T11:29:58;4.20;;;1.50;;
34102;SDS011;20381;54.498;18.206;2023-07-16T11:32:29;3.30;;;1.70;;
34102;SDS011;20381;54.498;18.206;2023-07-16T11:35:04;1.90;;;1.20;;
34102;SDS011;20381;54.498;18.206;2023-07-16T11:37:35;2.80;;;1.60;;
34102;SDS011;20381;54.498;18.206;2023-07-16T11:40:05;4.20;;;1.80;;
34102;SDS011;20381;54.498;18.206;2023-07-16T11:42:42;5.30;;;1.80;;
34102;SDS011;20381;54.498;18.206;2023-07-16T11:45:15;2.20;;;1.50;;
34102;SDS011;20381;54.498;18.206;2023-07-16T11:47:49;4.30;;;1.60;;
34102;SDS011;20381;54.498;18.206;2023-07-16T11:50:18;2.60;;;1.40;;
34102;SDS011;20381;54.498;18.206;2023-07-16T11:52:53;3.40;;;1.40;;
34102;SDS011;20381;54.498;18.206;2023-07-16T11:55:23;3.40;;;1.60;;
34102;SDS011;20381;54.498;18.206;2023-07-16T11:57:52;1.90;;;1.10;;
34102;SDS011;20381;54.498;18.206;2023-07-16T12:00:21;2.40;;;1.30;;
34102;SDS011;20381;54.498;18.206;2023-07-16T12:02:50;5.30;;;1.40;;
34102;SDS011;20381;54.498;18.206;2023-07-16T12:05:21;2.50;;;1.10;;
34102;SDS011;20381;54.498;18.206;2023-07-16T12:08:08;1.70;;;0.90;;
34102;SDS011;20381;54.498;18.206;2023-07-16T12:10:42;1.80;;;1.10;;
34102;SDS011;20381;54.498;18.206;2023-07-16T12:13:11;2.90;;;1.10;;
34102;SDS011;20381;54.498;18.206;2023-07-16T12:15:40;1.90;;;1.20;;
34102;SDS011;20381;54.498;18.206;2023-07-16T12:18:09;3.40;;;1.50;;
34102;SDS011;20381;54.498;18.206;2023-07-16T12:20:38;3.30;;;1.30;;
34102;SDS011;20381;54.498;18.206;2023-07-16T12:23:08;1.10;;;0.80;;
34102;SDS011;20381;54.498;18.206;2023-07-16T12:25:37;2.70;;;1.10;;
34102;SDS011;20381;54.498;18.206;2023-07-16T12:28:05;3.40;;;1.10;;
34102;SDS011;20381;54.498;18.206;2023-07-16T12:30:34;1.40;;;0.90;;
34102;SDS011;20381;54.498;18.206;2023-07-16T12:33:03;2.70;;;1.20;;
34102;SDS011;20381;54.498;18.206;2023-07-16T12:35:32;1.90;;;1.20;;
34102;SDS011;20381;54.498;18.206;2023-07-16T12:38:01;1.40;;;1.20;;
34102;SDS011;20381;54.498;18.206;2023-07-16T12:40:31;3.00;;;1.30;;
34102;SDS011;20381;54.498;18.206;2023-07-16T12:42:59;4.30;;;1.30;;
34102;SDS011;20381;54.498;18.206;2023-07-16T12:45:28;3.90;;;1.30;;
34102;SDS011;20381;54.498;18.206;2023-07-16T12:47:57;2.30;;;1.20;;
34102;SDS011;20381;54.498;18.206;2023-07-16T12:50:26;2.10;;;1.30;;
34102;SDS011;20381;54.498;18.206;2023-07-16T12:52:57;1.50;;;1.00;;
34102;SDS011;20381;54.498;18.206;2023-07-16T12:55:26;2.80;;;1.20;;
34102;SDS011;20381;54.498;18.206;2023-07-16T12:57:55;2.30;;;1.00;;
34102;SDS011;20381;54.498;18.206;2023-07-16T13:00:24;1.70;;;1.00;;
34102;SDS011;20381;54.498;18.206;2023-07-16T13:02:55;2.00;;;1.30;;
34102;SDS011;20381;54.498;18.206;2023-07-16T13:05:25;2.20;;;1.50;;
34102;SDS011;20381;54.498;18.206;2023-07-16T13:07:54;1.50;;;1.20;;
34102;SDS011;20381;54.498;18.206;2023-07-16T13:10:24;1.70;;;1.00;;
34102;SDS011;20381;54.498;18.206;2023-07-16T13:12:53;1.50;;;1.20;;
34102;SDS011;20381;54.498;18.206;2023-07-16T13:15:22;4.30;;;1.40;;
34102;SDS011;20381;54.498;18.206;2023-07-16T13:17:51;2.30;;;1.50;;
34102;SDS011;20381;54.498;18.206;2023-07-16T13:20:20;3.10;;;1.40;;
34102;SDS011;20381;54.498;18.206;2023-07-16T13:22:50;2.00;;;1.40;;
34102;SDS011;20381;54.498;18.206;2023-07-16T13:25:20;2.50;;;1.20;;
34102;SDS011;20381;54.498;18.206;2023-07-16T13:27:49;2.50;;;1.50;;
34102;SDS011;20381;54.498;18.206;2023-07-16T13:30:20;1.80;;;1.30;;
34102;SDS011;20381;54.498;18.206;2023-07-16T13:32:51;3.40;;;1.20;;
34102;SDS011;20381;54.498;18.206;2023-07-16T13:35:27;2.00;;;1.20;;
34102;SDS011;20381;54.498;18.206;2023-07-16T13:38:04;2.50;;;1.30;;
34102;SDS011;20381;54.498;18.206;2023-07-16T13:40:34;1.70;;;1.30;;
34102;SDS011;20381;54.498;18.206;2023-07-16T13:43:03;3.20;;;1.40;;
34102;SDS011;20381;54.498;18.206;2023-07-16T13:45:33;3.70;;;1.30;;
34102;SDS011;20381;54.498;18.206;2023-07-16T13:48:04;2.20;;;1.10;;
34102;SDS011;20381;54.498;18.206;2023-07-16T13:50:34;3.50;;;1.60;;
34102;SDS011;20381;54.498;18.206;2023-07-16T13:53:04;2.20;;;1.60;;
34102;SDS011;20381;54.498;18.206;2023-07-16T13:55:33;3.20;;;1.50;;
34102;SDS011;20381;54.498;18.206;2023-07-16T13:58:02;1.90;;;1.20;;
34102;SDS011;20381;54.498;18.206;2023-07-16T14:00:31;2.40;;;1.10;;
34102;SDS011;20381;54.498;18.206;2023-07-16T14:03:01;1.20;;;1.10;;
34102;SDS011;20381;54.498;18.206;2023-07-16T14:05:31;1.20;;;1.10;;
34102;SDS011;20381;54.498;18.206;2023-07-16T14:08:07;6.90;;;1.70;;
34102;SDS011;20381;54.498;18.206;2023-07-16T14:10:36;2.40;;;1.20;;
34102;SDS011;20381;54.498;18.206;2023-07-16T14:13:08;2.30;;;1.30;;
34102;SDS011;20381;54.498;18.206;2023-07-16T14:15:43;2.00;;;1.40;;
34102;SDS011;20381;54.498;18.206;2023-07-16T14:18:12;2.50;;;1.40;;
34102;SDS011;20381;54.498;18.206;2023-07-16T14:20:41;2.20;;;1.00;;
34102;SDS011;20381;54.498;18.206;2023-07-16T14:23:12;2.30;;;1.30;;
34102;SDS011;20381;54.498;18.206;2023-07-16T14:25:42;2.20;;;1.30;;
34102;SDS011;20381;54.498;18.206;2023-07-16T14:28:11;2.70;;;1.30;;
34102;SDS011;20381;54.498;18.206;2023-07-16T14:30:40;2.60;;;1.30;;
34102;SDS011;20381;54.498;18.206;2023-07-16T14:33:09;3.20;;;1.40;;
34102;SDS011;20381;54.498;18.206;2023-07-16T14:35:37;1.90;;;1.30;;
34102;SDS011;20381;54.498;18.206;2023-07-16T14:38:06;1.70;;;1.20;;
34102;SDS011;20381;54.498;18.206;2023-07-16T14:40:35;1.50;;;1.30;;
34102;SDS011;20381;54.498;18.206;2023-07-16T14:43:04;2.30;;;1.20;;
34102;SDS011;20381;54.498;18.206;2023-07-16T14:45:36;2.70;;;1.50;;
34102;SDS011;20381;54.498;18.206;2023-07-16T14:48:05;2.00;;;1.30;;
34102;SDS011;20381;54.498;18.206;2023-07-16T14:50:35;1.60;;;1.20;;
34102;SDS011;20381;54.498;18.206;2023-07-16T14:53:04;3.60;;;1.30;;
34102;SDS011;20381;54.498;18.206;2023-07-16T14:55:33;9.80;;;1.50;;
34102;SDS011;20381;54.498;18.206;2023-07-16T14:58:02;4.60;;;1.30;;
34102;SDS011;20381;54.498;18.206;2023-07-16T15:00:31;2.10;;;1.10;;
34102;SDS011;20381;54.498;18.206;2023-07-16T15:03:00;1.40;;;1.20;;
34102;SDS011;20381;54.498;18.206;2023-07-16T15:05:29;5.70;;;1.60;;
34102;SDS011;20381;54.498;18.206;2023-07-16T15:07:58;1.30;;;1.10;;
34102;SDS011;20381;54.498;18.206;2023-07-16T15:10:27;2.30;;;1.50;;
34102;SDS011;20381;54.498;18.206;2023-07-16T15:12:58;1.90;;;1.30;;
34102;SDS011;20381;54.498;18.206;2023-07-16T15:15:27;1.70;;;1.30;;
34102;SDS011;20381;54.498;18.206;2023-07-16T15:17:57;2.00;;;1.20;;
34102;SDS011;20381;54.498;18.206;2023-07-16T15:20:26;4.50;;;1.40;;